Saturday, November 17, 2018, 7:18 AM GMT
Back to Local

CYQB, Quebec, Que

Location: , , Canada Lat: 46.8
Local Time: 7:18 AM GMT ( 7:18 GMT) Lon: -71.383
Time Zone: GMT Elev: 229 ft

Show me the last for .
Show Decoded

2018-11-17 07:00 METAR CYQB 170700Z 23004KT 180V250 5SM -SN BR SCT025 BKN035 OVC048 M06/M07 A2973
                 RMK SC3SC4SC1 SLP072 =
2018-11-17 06:00 METAR CYQB 170600Z 25006KT 5SM -SN BR FEW008 SCT023 OVC044 M06/M07 A2970 RMK
                 ST1SC4SC4 ST TR SLP065 =
2018-11-17 05:00 METAR CYQB 170500Z 25003KT 4SM -SN BR FEW010 BKN024 OVC038 M06/M07 A2969 RMK
                 SF1SC6SC2 SF TR SLP059 =
2018-11-17 04:00 METAR CYQB 170400Z 31002KT 3SM -SN BR FEW009 SCT025 OVC034 M06/M07 A2966 RMK
                 SF2SC1SC5 VIS VRB 2-4 SLP051 =
2018-11-17 03:49 METAR CYQB 170349Z 32002KT 3SM -SN SCT010 BKN025 OVC038 M06/M07 A2966 RMK
                 SF3SC4SC1 VIS LWR S SLP050 =
2018-11-17 03:34 METAR CYQB 170334Z 31002KT 2 1/2SM -SN BKN009 OVC025 M06/M06 A2966 RMK ST6SC2
                 SLP050 =
2018-11-17 03:00 METAR CYQB 170300Z 00000KT 2 1/2SM -SN FEW010 OVC023 M06/M06 A2966 RMK SF2SC6
                 SLP049 =
2018-11-17 02:44 METAR CYQB 170244Z 00000KT 1 1/2SM -SN FEW008 VV021 M05/M06 A2966 RMK SF1SN7
                 SLP050 =
2018-11-17 02:00 METAR CYQB 170200Z 12004KT 1 1/4SM -SN FEW009 VV018 M05/M06 A2966 RMK SF1SN7
                 /S03/ SLP049 =
2018-11-17 01:33 METAR CYQB 170133Z 11005KT 1 1/4SM -SN FEW008 VV018 M05/M06 A2966 RMK SF1SN7
                 SLP049 =
2018-11-17 01:00 METAR CYQB 170100Z 11006KT 3/4SM R06/P6000FT/N -SN SCT009 VV015 M05/M06 A2965
                 RMK SF4SN4 /S02/ SLP047 =
2018-11-17 00:50 METAR CYQB 170050Z 10007KT 3/4SM R06/P6000FT/D -SN SCT009 OVC017 M05/M06 A2965
                 RMK SN2SF2SC4 SLP047 =
2018-11-17 00:27 METAR CYQB 170027Z 10006KT 3/4SM R06/P6000FT/U -SN DRSN SCT007 BKN011 M05/M06
                 A2965 RMK SN3SF1SF3 SLP047 =
2018-11-17 00:17 METAR CYQB 170017Z 10007KT 1 1/4SM -SN DRSN FEW006 OVC011 M05/M06 A2965 RMK
                 SF2SF6 SLP045 =
2018-11-17 00:00 METAR CYQB 170000Z 10008KT 2SM -SN DRSN FEW006 OVC010 M05/M06 A2964 RMK SF1SF7
                 /S08/ SLP044 =
2018-11-16 23:37 METAR CYQB 162337Z 10007KT 1 1/2SM -SN DRSN FEW006 BKN010 OVC019 M05/M06 A2964
                 RMK SF2SF4SC2 SLP044 =
2018-11-16 23:00 METAR CYQB 162300Z 07010G15KT 2SM -SN DRSN FEW008 SCT013 OVC019 M05/M06 A2964
                 RMK SF1SF3SC4 /S07/ SLP044 =
2018-11-16 22:50 METAR CYQB 162250Z 07012G18KT 2SM -SN DRSN FEW009 SCT013 OVC023 M05/M06 A2964
                 RMK SF1SF3SC4 SLP044 =
2018-11-16 22:24 METAR CYQB 162224Z 07013KT 2SM -SN DRSN FEW010 SCT014 OVC017 M05/M06 A2965 RMK
                 SF2SF2SC4 SLP046 =
2018-11-16 22:17 METAR CYQB 162217Z 07014KT 2SM -SN DRSN BKN014 OVC020 M05/M06 A2965 RMK SF6SC2
                 SLP046 =
2018-11-16 22:00 METAR CYQB 162200Z 07013KT 1 1/4SM -SN DRSN BKN014 BKN017 OVC045 M05/M06 A2965
                 RMK SF5SC2SC1 /S05/ SLP047 =
2018-11-16 21:37 METAR CYQB 162137Z 06014KT 1 1/4SM -SN DRSN BKN012 OVC045 M05/M06 A2966 RMK
                 SF5SC3 SLP051 =
2018-11-16 21:24 METAR CYQB 162124Z 06013KT 1 1/2SM -SN DRSN BKN010 OVC048 M05/M06 A2967 RMK
                 SF5SC3 SLP053 =
2018-11-16 21:00 METAR CYQB 162100Z 06015KT 3/4SM R06/P6000FT/U -SN DRSN FEW009 VV013 M05/M06
                 A2968 RMK SF1SN7 /S03/ SLP055 =
2018-11-16 20:49 METAR CYQB 162049Z 07015KT 3/4SM R06/P6000FT/D -SN DRSN FEW008 VV014 M05/M06
                 A2968 RMK SF1SN7 SLP055 =
2018-11-16 20:40 METAR CYQB 162040Z 07013KT 3/4SM R06/P6000FT/D -SN DRSN SCT009 OVC015 M05/M06
                 A2968 RMK SN3SF1SC4 SLP056 =
2018-11-16 20:30 METAR CYQB 162030Z 07013KT 1 1/4SM -SN DRSN SCT008 SCT013 OVC020 M05/M07 A2968
                 RMK SN1SF2SF1SC4 SLP056 =
2018-11-16 20:19 METAR CYQB 162019Z 07013KT 2 1/2SM -SN DRSN FEW008 SCT013 OVC028 M05/M07 A2968
                 RMK SF1SF3SC4 SLP058 =
2018-11-16 20:13 METAR CYQB 162013Z 07013KT 1 1/2SM -SN DRSN FEW008 BKN014 OVC037 M05/M06 A2968
                 RMK SF1SF5SC2 SLP058 =
2018-11-16 20:11 METAR CYQB 162011Z 07013G19KT 1 1/4SM -SN DRSN FEW008 BKN014 OVC038 M05/M06
                 A2968 RMK SN1SF1SF5SC1 SLP058 =
2018-11-16 20:00 METAR CYQB 162000Z 07014G23KT 3/4SM R06/P6000FT/U -SN DRSN SCT008 OVC014 M05/M06
                 A2969 RMK SN3SF1SF4 /S01/ SLP059 =
2018-11-16 19:53 METAR CYQB 161953Z 07015G23KT 3/4SM R06/P6000FT/U -SN DRSN SCT008 BKN010 OVC020
                 M05/M06 A2969 RMK SN3SF1SF3SC2 SF TR SLP060 =
2018-11-16 19:51 METAR CYQB 161951Z 07014G19KT 3/4SM R06/P6000FT/U -SN DRSN BKN010 OVC019 M05/M06
                 A2969 RMK SN3SF3SC2 SLP061 =
2018-11-16 19:34 METAR CYQB 161934Z 07014KT 1 1/4SM -SN DRSN BKN014 OVC024 M05/M07 A2970 RMK
                 SN1SF5SC2 SLP063 =
2018-11-16 19:27 METAR CYQB 161927Z 06011G17KT 1 1/2SM -SN DRSN BKN014 OVC027 M04/M07 A2970 RMK
                 SF6SC2 SLP064 =
2018-11-16 19:10 METAR CYQB 161910Z 07012G19KT 1 1/2SM -SN SCT014 BKN030 OVC045 M04/M07 A2970 RMK
                 SF4SC2SC2 SLP064 =
2018-11-16 19:00 METAR CYQB 161900Z 07014G20KT 1 1/2SM -SN BKN013 BKN025 OVC030 M04/M07 A2970 RMK
                 SF6SC1SC1 SLP064 =
2018-11-16 18:54 METAR CYQB 161854Z 07015KT 2 1/2SM -SN BKN014 OVC033 M05/M07 A2971 RMK SF6SC2
                 SLP067 =
2018-11-16 18:21 METAR CYQB 161821Z 06013KT 8SM -SN BKN013 BKN020 OVC045 M05/M07 A2972 RMK
                 SF6SC1SC1 SLP072 =
2018-11-16 18:14 METAR CYQB 161814Z 06013KT 2 1/2SM -SN BKN014 OVC045 M05/M07 A2973 RMK SF6SC2
                 SLP073 =
2018-11-16 18:00 METAR CYQB 161800Z 06013KT 1 1/4SM -SN BKN010 OVC046 M05/M07 A2973 RMK SN2SF4SC2
                 SLP075 =
2018-11-16 17:00 METAR CYQB 161700Z 06015G21KT 1 1/4SM R06/5500VP6000FT/U -SN BKN010 OVC018
                 M05/M07 A2976 RMK SN3SF3SC2 /S03/ SLP085 =
2018-11-16 16:43 METAR CYQB 161643Z 06012G20KT 1 1/4SM -SN BKN011 OVC020 M05/M07 A2978 RMK
                 SN3SF3SC2 SLP090 =
2018-11-16 16:12 METAR CYQB 161612Z 06016KT 1 1/4SM R06/5500VP6000FT/D -SN BKN009 OVC020 M05/M07
                 A2980 RMK SN5SF2SC1 SLP098 =
2018-11-16 16:00 METAR CYQB 161600Z 07013KT 1 1/4SM -SN SCT009 OVC020 M05/M07 A2981 RMK SN3SF1SC4
                 PRESFR SLP101 =
2018-11-16 15:46 METAR CYQB 161546Z 08014KT 1SM R06/5000VP6000FT/D -SN SCT008 OVC024 M05/M07
                 A2982 RMK SN3SF1SC4 SLP105 =
2018-11-16 15:22 METAR CYQB 161522Z 06013KT 1SM R06/5000FT/D -SN BKN008 VV015 M05/M07 A2984 RMK
                 SF5SN3 SLP110 =
2018-11-16 15:00 METAR CYQB 161500Z 06015KT 1 1/4SM R06/5500VP6000FT/D -SN OVC023 M06/M07 A2985
                 RMK SN5SC3 /S02/ SLP115 =
2018-11-16 14:52 METAR CYQB 161452Z 06015G20KT 1 1/4SM -SN OVC023 M06/M07 A2985 RMK SN5SC3 PRESFR
                 SLP115 =
2018-11-16 14:37 METAR CYQB 161437Z 07015KT 1 1/2SM -SN SCT009 OVC024 M06/M07 A2987 RMK SN3SF1SC4
                 SLP120 =
2018-11-16 14:00 METAR CYQB 161400Z 06013KT 1 1/2SM -SN OVC024 M06/M07 A2989 RMK SN4SC4 /S01/
                 SLP128 =
2018-11-16 13:48 METAR CYQB 161348Z 05012KT 1 1/2SM -SN BKN009 OVC024 M06/M07 A2990 RMK SN4SF1SC3
                 PRESFR SLP131 =
2018-11-16 13:29 METAR CYQB 161329Z 07010KT 1 1/4SM -SN VV020 M06/M08 A2992 RMK SN8 PRESFR SLP138
                 =
2018-11-16 13:00 METAR CYQB 161300Z 07012KT 1 1/4SM -SN VV014 M06/M07 A2994 RMK SN8 SLP147 =
2018-11-16 12:42 METAR CYQB 161242Z 06011KT 1 1/2SM -SN OVC023 M06/M08 A2995 RMK SN5SC3 PRESFR
                 SLP151 =
2018-11-16 12:16 METAR CYQB 161216Z 07010KT 1SM R06/P6000FT/U -SN VV017 M07/M08 A2998 RMK SN8
                 SLP158 =
2018-11-16 12:00 METAR CYQB 161200Z 08007KT 1SM R06/5500FT/D -SN VV010 M07/M08 A2999 RMK SN8
                 SLP162 =
2018-11-16 11:27 METAR CYQB 161127Z 14011G17KT 1SM R06/P6000FT/D -SN VV011 M06/M09 A3001 RMK SN8
                 SLP168 =
2018-11-16 11:17 METAR CYQB 161117Z 10009G17KT 12SM -SN BKN037 M05/M09 A3000 RMK SC7 VIS LWR S
                 SLP166 =
2018-11-16 11:00 METAR CYQB 161100Z 07013KT 15SM OVC055 M05/M09 A3000 RMK SC8 SLP166 =
2018-11-16 10:00 METAR CYQB 161000Z 06009KT 15SM FEW020 BKN090 OVC110 M06/M09 A3001 RMK SC1AC5AC3
                 SC TR SLP170 =
2018-11-16 09:00 METAR CYQB 160900Z 05010KT 15SM FEW080 OVC095 M06/M10 A3005 RMK AC2AC6 SLP182 =
2018-11-16 08:00 METAR CYQB 160800Z 05009KT 15SM OVC110 M07/M11 A3010 RMK AC8 SLP201 =

Support USWX by starting your Amazon purchase here.